Spaceon02064 — ASD — position and weather

sailwx.info

Track history (hours):
 
Tides and Currents Weather Stations Pressure Air Temp Water Temp Dewpoint Dewpoint Depression Visibility Wind Speed Wind Dir Waves Ship Positions

Spaceon02064

Last reported at 2017-May-26 18:13 UTC. Time now 2017-May-26 19:04 UTC.
Position N 30°44' E 122°00'.

Length 6 m.

Type: Ship. MMSI: 200902064.

Date/timePositionNaut miles runAvg speedWind from/ knotsBaromVisibWave heightAir tempDewpointWater temp
2017-May-26 18:13N 30°44' E 122°00'2 8.0
2017-May-26 17:59N 30°44' E 121°58'4 7.3
2017-May-26 17:27N 30°41' E 121°55'3 6.8
2017-May-26 17:00N 30°39' E 121°53'4 6.9
2017-May-26 16:30N 30°35' E 121°51'3 6.6
2017-May-26 15:59N 30°32' E 121°50'3 6.6
2017-May-26 15:30N 30°29' E 121°50'12144.7
2017-May-26 15:25N 30°18' E 121°54'921.2
2017-May-26 15:00N 30°26' E 121°49'4 6.4
2017-May-26 14:27N 30°22' E 121°49'9 6.8
2017-May-26 13:09N 30°13' E 121°49'2 7.4
2017-May-26 12:55N 30°12' E 121°49'21327.7
2017-May-26 12:51N 30°29' E 122°02'2364.5
2017-May-26 12:29N 30°09' E 121°49'27127.9
2017-May-26 12:17N 30°31' E 122°07'30107.1
2017-May-26 12:00N 30°05' E 121°48'33302.3
2017-May-26 11:53N 30°33' E 122°09'3690.0
2017-May-26 11:29N 30°01' E 121°49'808805.1
2017-May-26 10:29N 21°19' E 110°25'0 0.0
2017-May-26 09:57N 21°19' E 110°25'854246.3
2017-May-26 06:29N 31°07' E 121°56'4 7.5
2017-May-26 06:00N 31°09' E 121°52'3 6.4
2017-May-26 05:30N 31°11' E 121°50'1 1.3
2017-May-26 04:55N 31°12' E 121°49'0 0.0
2017-May-26 04:30N 31°12' E 121°49'0 0.0
2017-May-26 03:58N 31°12' E 121°49'0 0.0
2017-May-26 03:28N 31°12' E 121°49'0 0.0
2017-May-26 03:00N 31°12' E 121°49'0 0.0
2017-May-26 02:22N 31°12' E 121°49'0 0.0
2017-May-26 01:58N 31°12' E 121°49'0 0.1
2017-May-26 01:25N 31°12' E 121°49'0 0.0
2017-May-26 00:58N 31°12' E 121°49'0 0.0
2017-May-26 00:25N 31°12' E 121°49'3 6.3
2017-May-25 23:59N 31°14' E 121°47'5 9.3
2017-May-25 23:30N 31°17' E 121°44'5 9.1
2017-May-25 22:56N 31°21' E 121°39'4 9.1
2017-May-25 22:30N 31°23' E 121°35'9 9.3
2017-May-25 21:29N 31°28' E 121°26'6 8.4
2017-May-25 20:43N 31°32' E 121°20'2 8.2
2017-May-25 20:30N 31°33' E 121°19'4 7.9
2017-May-25 20:00N 31°36' E 121°16'4 7.5
2017-May-25 19:28N 31°39' E 121°13'84994.7
2017-May-25 10:30N 21°19' E 110°25'0 0.0
2017-May-25 10:00N 21°19' E 110°25'0 0.0
2017-May-25 09:30N 21°19' E 110°25'0 0.0
2017-May-24 10:49N 21°19' E 110°25'0 0.1
2017-May-24 10:24N 21°19' E 110°25'0 0.0
2017-May-23 10:39N 21°19' E 110°25'0 0.0
2017-May-23 10:30N 21°19' E 110°25'0 0.0
2017-May-23 10:00N 21°19' E 110°25'0 0.0
2017-May-23 09:30N 21°19' E 110°25'0 0.0
2017-May-22 10:28N 21°19' E 110°25'84918.9
2017-May-20 13:37N 31°42' E 121°09'1 7.1
2017-May-20 13:30N 31°42' E 121°10'4 7.4
2017-May-20 12:58N 31°39' E 121°14'3 7.0
2017-May-20 12:30N 31°37' E 121°16'4 7.2
2017-May-20 11:54N 31°34' E 121°20'3 7.4
2017-May-20 11:30N 31°32' E 121°22'10 7.6
2017-May-20 10:15N 31°25' E 121°31'2 8.1
2017-May-20 09:59N 31°24' E 121°33'4 7.6
2017-May-20 09:30N 31°23' E 121°37'4 7.3
2017-May-20 08:59N 31°21' E 121°40'4 7.6
2017-May-20 08:29N 31°18' E 121°44'4 7.6
2017-May-20 08:00N 31°15' E 121°46'4 7.4
2017-May-20 07:30N 31°13' E 121°49'3 7.0
2017-May-20 07:00N 31°10' E 121°52'3 6.3
2017-May-20 06:30N 31°08' E 121°55'3 6.0
2017-May-20 05:59N 31°07' E 121°58'5 0.1
2017-May-18 17:39N 31°03' E 122°02'1 6.6
2017-May-18 17:27N 31°04' E 122°01'4 6.8
2017-May-18 16:50N 31°06' E 121°57'2 7.3
2017-May-18 16:30N 31°08' E 121°55'4 8.0
2017-May-18 15:59N 31°10' E 121°51'4 9.0
2017-May-18 15:30N 31°14' E 121°47'5 9.2
2017-May-18 15:00N 31°17' E 121°44'10 9.5
2017-May-18 13:56N 31°23' E 121°35'8521600.7
2017-May-18 13:24N 21°19' E 110°25'0 0.0
2017-May-18 11:30N 21°19' E 110°25'0 0.0
2017-May-17 10:24N 21°19' E 110°25'850253.6
2017-May-17 07:03N 31°34' E 121°20'0 5.3
2017-May-17 07:00N 31°34' E 121°20'1582.3
2017-May-17 06:49N 31°24' E 121°32'1232.1
2017-May-17 06:27N 31°32' E 121°22'15131.5
2017-May-17 06:21N 31°23' E 121°36'3 7.4
2017-May-17 06:00N 31°22' E 121°39'4 7.5
2017-May-17 05:29N 31°19' E 121°42'4 7.3
2017-May-17 05:00N 31°17' E 121°45'3 6.8
2017-May-17 04:30N 31°14' E 121°48'3 6.7
2017-May-17 04:00N 31°12' E 121°50'3 5.8
2017-May-17 03:30N 31°10' E 121°53'3 5.4
2017-May-17 02:57N 31°08' E 121°56'2 4.8
2017-May-17 02:29N 31°07' E 121°58'3 4.8
2017-May-17 01:54N 31°05' E 122°00'  
Track history (hours):
 
Tides and Currents Weather Stations Pressure Air Temp Water Temp Dewpoint Dewpoint Depression Visibility Wind Speed Wind Dir Waves Ship Positions

Spaceon02064

Last reported at 2017-May-26 18:13 UTC. Time now 2017-May-26 19:04 UTC.
Position N 30°44' E 122°00'.

Length 6 m.

Type: Ship. MMSI: 200902064.

Date/timePositionNaut miles runAvg speedWind from/ knotsBaromVisibWave heightAir tempDewpointWater temp
2017-May-26 18:13N 30°44' E 122°00'2 8.0
2017-May-26 17:59N 30°44' E 121°58'4 7.3
2017-May-26 17:27N 30°41' E 121°55'3 6.8
2017-May-26 17:00N 30°39' E 121°53'4 6.9
2017-May-26 16:30N 30°35' E 121°51'3 6.6
2017-May-26 15:59N 30°32' E 121°50'3 6.6
2017-May-26 15:30N 30°29' E 121°50'12144.7
2017-May-26 15:25N 30°18' E 121°54'921.2
2017-May-26 15:00N 30°26' E 121°49'4 6.4
2017-May-26 14:27N 30°22' E 121°49'9 6.8
2017-May-26 13:09N 30°13' E 121°49'2 7.4
2017-May-26 12:55N 30°12' E 121°49'21327.7
2017-May-26 12:51N 30°29' E 122°02'2364.5
2017-May-26 12:29N 30°09' E 121°49'27127.9
2017-May-26 12:17N 30°31' E 122°07'30107.1
2017-May-26 12:00N 30°05' E 121°48'33302.3
2017-May-26 11:53N 30°33' E 122°09'3690.0
2017-May-26 11:29N 30°01' E 121°49'808805.1
2017-May-26 10:29N 21°19' E 110°25'0 0.0
2017-May-26 09:57N 21°19' E 110°25'854246.3
2017-May-26 06:29N 31°07' E 121°56'4 7.5
2017-May-26 06:00N 31°09' E 121°52'3 6.4
2017-May-26 05:30N 31°11' E 121°50'1 1.3
2017-May-26 04:55N 31°12' E 121°49'0 0.0
2017-May-26 04:30N 31°12' E 121°49'0 0.0
2017-May-26 03:58N 31°12' E 121°49'0 0.0
2017-May-26 03:28N 31°12' E 121°49'0 0.0
2017-May-26 03:00N 31°12' E 121°49'0 0.0
2017-May-26 02:22N 31°12' E 121°49'0 0.0
2017-May-26 01:58N 31°12' E 121°49'0 0.1
2017-May-26 01:25N 31°12' E 121°49'0 0.0
2017-May-26 00:58N 31°12' E 121°49'0 0.0
2017-May-26 00:25N 31°12' E 121°49'3 6.3
2017-May-25 23:59N 31°14' E 121°47'5 9.3
2017-May-25 23:30N 31°17' E 121°44'5 9.1
2017-May-25 22:56N 31°21' E 121°39'4 9.1
2017-May-25 22:30N 31°23' E 121°35'9 9.3
2017-May-25 21:29N 31°28' E 121°26'6 8.4
2017-May-25 20:43N 31°32' E 121°20'2 8.2
2017-May-25 20:30N 31°33' E 121°19'4 7.9
2017-May-25 20:00N 31°36' E 121°16'4 7.5
2017-May-25 19:28N 31°39' E 121°13'84994.7
2017-May-25 10:30N 21°19' E 110°25'0 0.0
2017-May-25 10:00N 21°19' E 110°25'0 0.0
2017-May-25 09:30N 21°19' E 110°25'0 0.0
2017-May-24 10:49N 21°19' E 110°25'0 0.1
2017-May-24 10:24N 21°19' E 110°25'0 0.0
2017-May-23 10:39N 21°19' E 110°25'0 0.0
2017-May-23 10:30N 21°19' E 110°25'0 0.0
2017-May-23 10:00N 21°19' E 110°25'0 0.0
2017-May-23 09:30N 21°19' E 110°25'0 0.0
2017-May-22 10:28N 21°19' E 110°25'84918.9
2017-May-20 13:37N 31°42' E 121°09'1 7.1
2017-May-20 13:30N 31°42' E 121°10'4 7.4
2017-May-20 12:58N 31°39' E 121°14'3 7.0
2017-May-20 12:30N 31°37' E 121°16'4 7.2
2017-May-20 11:54N 31°34' E 121°20'3 7.4
2017-May-20 11:30N 31°32' E 121°22'10 7.6
2017-May-20 10:15N 31°25' E 121°31'2 8.1
2017-May-20 09:59N 31°24' E 121°33'4 7.6
2017-May-20 09:30N 31°23' E 121°37'4 7.3
2017-May-20 08:59N 31°21' E 121°40'4 7.6
2017-May-20 08:29N 31°18' E 121°44'4 7.6
2017-May-20 08:00N 31°15' E 121°46'4 7.4
2017-May-20 07:30N 31°13' E 121°49'3 7.0
2017-May-20 07:00N 31°10' E 121°52'3 6.3
2017-May-20 06:30N 31°08' E 121°55'3 6.0
2017-May-20 05:59N 31°07' E 121°58'5 0.1
2017-May-18 17:39N 31°03' E 122°02'1 6.6
2017-May-18 17:27N 31°04' E 122°01'4 6.8
2017-May-18 16:50N 31°06' E 121°57'2 7.3
2017-May-18 16:30N 31°08' E 121°55'4 8.0
2017-May-18 15:59N 31°10' E 121°51'4 9.0
2017-May-18 15:30N 31°14' E 121°47'5 9.2
2017-May-18 15:00N 31°17' E 121°44'10 9.5
2017-May-18 13:56N 31°23' E 121°35'8521600.7
2017-May-18 13:24N 21°19' E 110°25'0 0.0
2017-May-18 11:30N 21°19' E 110°25'0 0.0
2017-May-17 10:24N 21°19' E 110°25'850253.6
2017-May-17 07:03N 31°34' E 121°20'0 5.3
2017-May-17 07:00N 31°34' E 121°20'1582.3
2017-May-17 06:49N 31°24' E 121°32'1232.1
2017-May-17 06:27N 31°32' E 121°22'15131.5
2017-May-17 06:21N 31°23' E 121°36'3 7.4
2017-May-17 06:00N 31°22' E 121°39'4 7.5
2017-May-17 05:29N 31°19' E 121°42'4 7.3
2017-May-17 05:00N 31°17' E 121°45'3 6.8
2017-May-17 04:30N 31°14' E 121°48'3 6.7
2017-May-17 04:00N 31°12' E 121°50'3 5.8
2017-May-17 03:30N 31°10' E 121°53'3 5.4
2017-May-17 02:57N 31°08' E 121°56'2 4.8
2017-May-17 02:29N 31°07' E 121°58'3 4.8
2017-May-17 01:54N 31°05' E 122°00'  

Dump ship's entire track history